createdAt,value
2023-04-17T00:00:23.216Z,8.86
2023-04-17T00:02:56.722Z,8.88
2023-04-17T00:05:32.005Z,8.89
2023-04-17T00:08:04.900Z,8.88
2023-04-17T00:10:38.247Z,8.91
2023-04-17T00:13:11.566Z,8.89
2023-04-17T00:15:44.321Z,8.90
2023-04-17T00:18:18.385Z,8.92
2023-04-17T00:20:50.990Z,8.92
2023-04-17T00:23:23.677Z,8.91
2023-04-17T00:25:56.209Z,8.90
2023-04-17T00:28:29.031Z,8.91
2023-04-17T00:31:01.743Z,8.95
2023-04-17T00:33:35.202Z,8.95
2023-04-17T00:36:08.583Z,8.95
2023-04-17T00:38:41.426Z,8.92
2023-04-17T00:41:14.165Z,8.90
2023-04-17T00:43:46.808Z,8.89
2023-04-17T00:46:19.319Z,8.89
2023-04-17T00:48:51.985Z,8.90
2023-04-17T00:51:24.348Z,8.90
2023-04-17T00:53:56.956Z,8.89
2023-04-17T00:56:30.242Z,8.88
2023-04-17T00:59:03.329Z,8.85
2023-04-17T01:01:36.136Z,8.83
2023-04-17T01:04:10.302Z,8.84
2023-04-17T01:06:43.182Z,8.87
2023-04-17T01:09:15.659Z,8.90
2023-04-17T01:11:48.205Z,8.91
2023-04-17T01:14:20.910Z,8.91
2023-04-17T01:16:53.515Z,8.88
2023-04-17T01:19:25.931Z,8.86
2023-04-17T01:21:58.387Z,8.89
2023-04-17T01:24:32.313Z,8.90
2023-04-17T01:27:07.180Z,8.89
2023-04-17T01:29:40.967Z,8.88
2023-04-17T01:32:13.940Z,8.88
2023-04-17T01:34:47.156Z,8.88
2023-04-17T01:37:20.105Z,8.89
2023-04-17T01:39:53.525Z,8.88
2023-04-17T01:42:25.885Z,8.85
2023-04-17T01:44:58.298Z,8.85
2023-04-17T01:47:30.878Z,8.87
2023-04-17T01:50:04.225Z,8.87
2023-04-17T01:52:37.475Z,8.87
2023-04-17T01:55:11.039Z,8.83
2023-04-17T01:57:44.109Z,8.83
2023-04-17T02:00:17.222Z,8.83
2023-04-17T02:02:50.419Z,8.83
2023-04-17T02:05:23.319Z,8.84
2023-04-17T02:07:56.179Z,8.83
2023-04-17T02:10:31.262Z,8.87
2023-04-17T02:13:04.014Z,8.89
2023-04-17T02:15:38.876Z,8.89
2023-04-17T02:18:11.017Z,8.91
2023-04-17T02:20:43.403Z,8.91
2023-04-17T02:23:15.968Z,8.88
2023-04-17T02:25:48.602Z,8.91
2023-04-17T02:28:21.537Z,8.91
2023-04-17T02:30:54.075Z,8.89
2023-04-17T02:33:26.538Z,8.85
2023-04-17T02:35:59.036Z,8.80
2023-04-17T02:38:33.905Z,8.80
2023-04-17T02:41:06.529Z,8.82
2023-04-17T02:43:39.407Z,8.83
2023-04-17T02:46:12.082Z,8.80
2023-04-17T02:48:44.508Z,8.78
2023-04-17T02:51:17.029Z,8.78
2023-04-17T02:53:49.904Z,8.80
2023-04-17T02:56:22.746Z,8.81
2023-04-17T02:58:55.508Z,8.79
2023-04-17T03:01:28.216Z,8.80
2023-04-17T03:04:01.445Z,8.80
2023-04-17T03:06:34.550Z,8.80
2023-04-17T03:09:07.418Z,8.82
2023-04-17T03:11:40.467Z,8.84
2023-04-17T03:14:12.882Z,8.84
2023-04-17T03:16:45.688Z,8.86
2023-04-17T03:19:18.172Z,8.86
2023-04-17T03:21:50.814Z,8.87
2023-04-17T03:24:23.427Z,8.90
2023-04-17T03:26:56.655Z,8.95
2023-04-17T03:29:31.220Z,8.96
2023-04-17T03:32:03.874Z,8.97
2023-04-17T03:34:37.266Z,8.95
2023-04-17T03:37:09.785Z,8.96
2023-04-17T03:39:42.717Z,8.93
2023-04-17T03:42:15.433Z,8.91
2023-04-17T03:44:48.875Z,8.92
2023-04-17T03:47:21.563Z,8.94
2023-04-17T03:49:54.108Z,8.95
2023-04-17T03:52:27.539Z,8.97
2023-04-17T03:55:01.768Z,8.97
2023-04-17T03:57:34.602Z,8.93
2023-04-17T04:00:10.618Z,8.96
2023-04-17T04:02:54.250Z,8.98
2023-04-17T04:05:28.938Z,9.01
2023-04-17T04:08:01.889Z,9.04
2023-04-17T04:10:36.129Z,9.06
2023-04-17T04:13:09.016Z,9.06
2023-04-17T04:15:42.258Z,9.08
2023-04-17T04:18:15.190Z,9.10
2023-04-17T04:20:48.450Z,9.13
2023-04-17T04:23:24.249Z,9.16
2023-04-17T04:25:58.260Z,9.18
2023-04-17T04:28:39.045Z,9.22
2023-04-17T04:31:15.317Z,9.28
2023-04-17T04:33:48.199Z,9.34
2023-04-17T04:36:21.792Z,9.37
2023-04-17T04:38:57.783Z,9.41
2023-04-17T04:41:34.163Z,9.46
2023-04-17T04:44:08.891Z,9.49
2023-04-17T04:46:42.079Z,9.50
2023-04-17T04:49:15.336Z,9.52
2023-04-17T04:51:47.966Z,9.53
2023-04-17T04:54:21.020Z,9.57
2023-04-17T04:56:58.181Z,9.62
2023-04-17T04:59:30.783Z,9.65
2023-04-17T05:02:05.091Z,9.66
2023-04-17T05:04:38.599Z,9.68
2023-04-17T05:07:11.409Z,9.70
2023-04-17T05:09:44.575Z,9.70
2023-04-17T05:12:18.027Z,9.73
2023-04-17T05:14:50.624Z,9.76
2023-04-17T05:17:23.883Z,9.77
2023-04-17T05:19:57.462Z,9.76
2023-04-17T05:22:30.089Z,9.77
2023-04-17T05:25:04.917Z,9.79
2023-04-17T05:27:37.869Z,9.82
2023-04-17T05:30:11.433Z,9.86
2023-04-17T05:32:46.438Z,9.87
2023-04-17T05:35:20.631Z,9.90
2023-04-17T05:37:54.320Z,9.92
2023-04-17T05:40:26.825Z,9.95
2023-04-17T05:42:59.502Z,10.01
2023-04-17T05:45:31.991Z,10.02
2023-04-17T05:48:04.931Z,10.04
2023-04-17T05:50:40.670Z,10.05
2023-04-17T05:53:13.193Z,10.08
2023-04-17T05:55:47.413Z,10.15
2023-04-17T05:58:23.909Z,10.24
2023-04-17T06:00:54.255Z,10.36
2023-04-17T06:03:27.725Z,10.51
2023-04-17T06:06:11.581Z,10.65
2023-04-17T06:08:44.357Z,10.78
2023-04-17T06:11:17.377Z,10.88
2023-04-17T06:13:50.386Z,10.93
2023-04-17T06:16:23.167Z,10.98
2023-04-17T06:18:56.208Z,11.06
2023-04-17T06:21:28.752Z,11.10
2023-04-17T06:24:03.098Z,11.11
2023-04-17T06:26:36.375Z,11.13
2023-04-17T06:29:09.194Z,11.15
2023-04-17T06:31:42.624Z,11.18
2023-04-17T06:34:16.319Z,11.28
2023-04-17T06:36:51.571Z,11.44
2023-04-17T06:39:24.094Z,11.61
2023-04-17T06:41:57.248Z,11.74
2023-04-17T06:44:31.569Z,11.82
2023-04-17T06:47:06.043Z,11.94
2023-04-17T06:49:39.563Z,12.02
2023-04-17T06:52:12.235Z,12.11
2023-04-17T06:54:44.720Z,12.13
2023-04-17T06:57:17.385Z,12.15
2023-04-17T06:59:50.100Z,12.09
2023-04-17T07:02:22.871Z,11.90
2023-04-17T07:04:56.081Z,11.77
2023-04-17T07:07:30.279Z,11.69
2023-04-17T07:10:03.803Z,11.64
2023-04-17T07:12:37.029Z,11.55
2023-04-17T07:15:10.823Z,11.56
2023-04-17T07:17:43.620Z,11.61
2023-04-17T07:20:16.119Z,11.75
2023-04-17T07:22:50.274Z,11.81
2023-04-17T07:25:23.051Z,11.86
2023-04-17T07:27:57.074Z,11.90
2023-04-17T07:30:29.713Z,11.91
2023-04-17T07:33:02.965Z,11.91
2023-04-17T07:35:35.446Z,11.86
2023-04-17T07:38:09.433Z,11.83
2023-04-17T07:40:42.051Z,11.87
2023-04-17T07:43:15.488Z,11.94
2023-04-17T07:45:49.192Z,12.11
2023-04-17T07:48:23.572Z,12.49
2023-04-17T07:50:56.373Z,12.94
2023-04-17T07:53:29.507Z,13.38
2023-04-17T07:56:02.216Z,13.67
2023-04-17T07:58:36.459Z,13.98
2023-04-17T08:01:08.881Z,14.33
2023-04-17T08:03:41.932Z,14.57
2023-04-17T08:06:15.731Z,14.71
2023-04-17T08:08:48.608Z,14.85
2023-04-17T08:11:21.553Z,14.84
2023-04-17T08:13:54.784Z,14.83
2023-04-17T08:16:27.408Z,14.90
2023-04-17T08:18:59.950Z,14.90
2023-04-17T08:21:32.916Z,14.70
2023-04-17T08:24:05.693Z,14.48
2023-04-17T08:26:38.409Z,14.33
2023-04-17T08:29:11.313Z,14.41
2023-04-17T08:31:44.314Z,14.71
2023-04-17T08:34:17.120Z,15.13
2023-04-17T08:36:49.803Z,15.38
2023-04-17T08:39:22.907Z,15.47
2023-04-17T08:42:02.088Z,15.51
2023-04-17T08:44:34.748Z,15.42
2023-04-17T08:47:09.526Z,15.35
2023-04-17T08:49:44.199Z,15.55
2023-04-17T08:52:17.021Z,15.85
2023-04-17T08:54:51.320Z,15.98
2023-04-17T08:57:23.561Z,16.31
2023-04-17T08:59:56.203Z,16.51
2023-04-17T09:02:28.828Z,16.40
2023-04-17T09:05:02.257Z,16.27
2023-04-17T09:07:35.032Z,16.19
2023-04-17T09:10:08.070Z,16.11
2023-04-17T09:12:42.366Z,16.17
2023-04-17T09:15:19.080Z,16.32
2023-04-17T09:17:51.819Z,16.37
2023-04-17T09:20:24.672Z,16.30
2023-04-17T09:23:25.083Z,16.23
2023-04-17T09:26:13.853Z,16.12
2023-04-17T09:29:05.431Z,16.03
2023-04-17T09:31:39.521Z,16.13
2023-04-17T09:34:13.622Z,16.49
2023-04-17T09:36:46.272Z,16.70
2023-04-17T09:39:27.224Z,16.74
2023-04-17T09:42:04.430Z,16.87
2023-04-17T09:44:38.198Z,17.01
2023-04-17T09:47:11.458Z,17.15
2023-04-17T09:49:53.107Z,17.05
2023-04-17T09:52:26.256Z,16.76
2023-04-17T09:54:58.653Z,16.47
2023-04-17T09:57:31.506Z,16.26
2023-04-17T10:00:05.809Z,16.19
2023-04-17T10:02:38.239Z,16.07
2023-04-17T10:05:12.907Z,15.94
2023-04-17T10:07:46.086Z,15.59
2023-04-17T10:10:31.432Z,15.22
2023-04-17T10:13:09.332Z,14.88
2023-04-17T10:15:42.376Z,14.65
2023-04-17T10:18:26.624Z,14.44
2023-04-17T10:20:59.084Z,14.40
2023-04-17T10:23:40.244Z,14.38
2023-04-17T10:26:38.003Z,14.29
2023-04-17T10:29:10.532Z,14.18
2023-04-17T10:32:12.624Z,14.01
2023-04-17T10:34:45.425Z,13.87
2023-04-17T10:37:17.897Z,13.77
2023-04-17T10:40:02.406Z,13.70
2023-04-17T10:42:35.343Z,13.65
2023-04-17T10:45:11.291Z,13.61
2023-04-17T10:47:45.658Z,13.62
2023-04-17T10:50:19.516Z,13.65
2023-04-17T10:52:52.030Z,13.74
2023-04-17T10:55:25.561Z,13.85
2023-04-17T10:58:02.315Z,13.95
2023-04-17T11:00:39.058Z,14.10
2023-04-17T11:03:13.518Z,14.26
2023-04-17T11:05:49.122Z,14.39
2023-04-17T11:08:22.619Z,14.55
2023-04-17T11:10:57.307Z,14.71
2023-04-17T11:13:34.895Z,14.83
2023-04-17T11:16:07.584Z,14.99
2023-04-17T11:18:40.341Z,15.16
2023-04-17T11:21:15.787Z,15.36
2023-04-17T11:23:54.109Z,15.62
2023-04-17T11:26:26.746Z,15.91
2023-04-17T11:29:01.147Z,16.25
2023-04-17T11:31:33.185Z,16.65
2023-04-17T11:34:07.184Z,17.03
2023-04-17T11:36:39.880Z,17.42
2023-04-17T11:39:14.306Z,17.81
2023-04-17T11:41:46.669Z,18.07
2023-04-17T11:44:21.432Z,18.23
2023-04-17T11:46:56.983Z,18.32
2023-04-17T11:49:52.073Z,18.46
2023-04-17T11:52:24.515Z,18.53
2023-04-17T11:55:00.309Z,18.62
2023-04-17T11:57:44.247Z,18.74
2023-04-17T12:00:18.141Z,18.76
2023-04-17T12:02:51.210Z,18.73
2023-04-17T12:05:25.759Z,18.64
2023-04-17T12:08:02.220Z,18.58
2023-04-17T12:10:42.944Z,18.55
2023-04-17T12:13:15.787Z,18.41
2023-04-17T12:15:48.347Z,18.29
2023-04-17T12:18:20.972Z,18.19
2023-04-17T12:20:53.394Z,18.11
2023-04-17T12:23:25.939Z,17.96
2023-04-17T12:25:58.419Z,17.80
2023-04-17T12:28:31.413Z,17.60
2023-04-17T12:31:04.858Z,17.37
2023-04-17T12:33:37.591Z,17.28
2023-04-17T12:36:10.941Z,17.31
2023-04-17T12:38:43.558Z,17.22
2023-04-17T12:41:16.011Z,17.09
2023-04-17T12:43:48.423Z,16.96
2023-04-17T12:46:21.756Z,16.83
2023-04-17T12:48:58.819Z,16.72
2023-04-17T12:51:32.483Z,16.61
2023-04-17T12:54:05.027Z,16.55
2023-04-17T12:56:37.901Z,16.54
2023-04-17T12:59:10.829Z,16.55
2023-04-17T13:01:43.958Z,16.53
2023-04-17T13:04:16.852Z,16.54
2023-04-17T13:06:49.650Z,16.59
2023-04-17T13:09:22.217Z,16.68
2023-04-17T13:11:54.859Z,16.78
2023-04-17T13:14:27.835Z,16.86
2023-04-17T13:17:00.474Z,16.78
2023-04-17T13:19:34.296Z,16.68
2023-04-17T13:22:07.670Z,16.65
2023-04-17T13:24:40.490Z,16.65
2023-04-17T13:27:13.290Z,16.67
2023-04-17T13:29:46.620Z,16.62
2023-04-17T13:32:19.230Z,16.57
2023-04-17T13:34:51.722Z,16.54
2023-04-17T13:37:24.766Z,16.55
2023-04-17T13:39:57.090Z,16.50
2023-04-17T13:42:29.599Z,16.40
2023-04-17T13:45:02.144Z,16.27
2023-04-17T13:47:35.098Z,16.10
2023-04-17T13:50:09.086Z,15.99
2023-04-17T13:52:41.793Z,15.88
2023-04-17T13:55:15.883Z,15.81
2023-04-17T13:57:48.504Z,15.75
2023-04-17T14:00:22.429Z,15.72
2023-04-17T14:02:55.144Z,15.69
2023-04-17T14:05:27.662Z,15.68
2023-04-17T14:08:00.416Z,15.63
2023-04-17T14:10:33.149Z,15.60
2023-04-17T14:13:07.240Z,15.58
2023-04-17T14:15:40.428Z,15.59
2023-04-17T14:18:12.911Z,15.63
2023-04-17T14:20:45.543Z,15.63
2023-04-17T14:23:17.971Z,15.66
2023-04-17T14:25:50.450Z,15.68
2023-04-17T14:28:23.748Z,15.66
2023-04-17T14:30:56.769Z,15.66
2023-04-17T14:33:29.354Z,15.66
2023-04-17T14:36:02.646Z,15.63
2023-04-17T14:38:36.167Z,15.57
2023-04-17T14:41:08.700Z,15.53
2023-04-17T14:43:41.350Z,15.49
2023-04-17T14:46:13.728Z,15.46
2023-04-17T14:51:20.512Z,15.41
2023-04-17T14:53:53.474Z,15.40
2023-04-17T14:56:26.063Z,15.35
2023-04-17T14:58:59.641Z,15.28
2023-04-17T15:01:32.609Z,15.25
2023-04-17T15:04:06.668Z,15.20
2023-04-17T15:06:39.489Z,15.16
2023-04-17T15:09:12.368Z,15.12
2023-04-17T15:11:47.102Z,15.06
2023-04-17T15:14:18.965Z,15.02
2023-04-17T15:16:51.362Z,14.98
2023-04-17T15:19:23.946Z,14.97
2023-04-17T15:21:56.573Z,14.97
2023-04-17T15:24:29.099Z,14.92
2023-04-17T15:27:01.976Z,14.90
2023-04-17T15:29:34.507Z,14.86
2023-04-17T15:32:07.258Z,14.83
2023-04-17T15:34:41.311Z,14.80
2023-04-17T15:37:13.657Z,14.75
2023-04-17T15:39:46.265Z,14.71
2023-04-17T15:42:18.627Z,14.67
2023-04-17T15:44:51.253Z,14.63
2023-04-17T15:47:24.846Z,14.60
2023-04-17T15:49:57.276Z,14.55
2023-04-17T15:52:29.788Z,14.51
2023-04-17T15:55:02.477Z,14.47
2023-04-17T15:57:35.567Z,14.43
2023-04-17T16:00:09.527Z,14.38
2023-04-17T16:02:41.965Z,14.34
2023-04-17T16:05:15.477Z,14.30
2023-04-17T16:07:48.376Z,14.25
2023-04-17T16:10:21.478Z,14.19
2023-04-17T16:12:54.242Z,14.15
2023-04-17T16:15:26.711Z,14.10
2023-04-17T16:17:59.237Z,14.05
2023-04-17T16:20:31.749Z,14.01
2023-04-17T16:23:04.626Z,13.97
2023-04-17T16:25:37.464Z,13.92
2023-04-17T16:28:09.907Z,13.87
2023-04-17T16:30:42.470Z,13.83
2023-04-17T16:33:15.019Z,13.80
2023-04-17T16:35:47.443Z,13.75
2023-04-17T16:38:20.393Z,13.69
2023-04-17T16:40:54.632Z,13.63
2023-04-17T16:43:28.107Z,13.60
2023-04-17T16:46:05.512Z,13.54
2023-04-17T16:48:34.937Z,13.49
2023-04-17T16:51:07.676Z,13.43
2023-04-17T16:53:41.449Z,13.39
2023-04-17T16:56:14.003Z,13.34
2023-04-17T16:58:46.584Z,13.28
2023-04-17T17:01:19.722Z,13.24
2023-04-17T17:03:53.345Z,13.19
2023-04-17T17:06:25.741Z,13.15
2023-04-17T17:08:59.791Z,13.11
2023-04-17T17:11:32.234Z,13.05
2023-04-17T17:14:04.642Z,13.02
2023-04-17T17:16:37.368Z,12.98
2023-04-17T17:19:10.286Z,12.95
2023-04-17T17:21:43.085Z,12.91
2023-04-17T17:24:16.153Z,12.87
2023-04-17T17:26:48.611Z,12.85
2023-04-17T17:29:22.072Z,12.81
2023-04-17T17:31:54.538Z,12.76
2023-04-17T17:34:27.654Z,12.74
2023-04-17T17:37:00.938Z,12.72
2023-04-17T17:39:33.589Z,12.71
2023-04-17T17:42:08.276Z,12.70
2023-04-17T17:44:41.204Z,12.70
2023-04-17T17:47:13.596Z,12.68
2023-04-17T17:49:46.217Z,12.65
2023-04-17T17:52:18.718Z,12.62
2023-04-17T17:54:51.758Z,12.62
2023-04-17T17:57:24.187Z,12.61
2023-04-17T17:59:58.346Z,12.59
2023-04-17T18:02:30.987Z,12.57
2023-04-17T18:05:03.979Z,12.56
2023-04-17T18:07:36.965Z,12.52
2023-04-17T18:10:10.370Z,12.50
2023-04-17T18:12:42.943Z,12.49
2023-04-17T18:15:15.379Z,12.48
2023-04-17T18:17:48.185Z,12.47
2023-04-17T18:20:20.910Z,12.46
2023-04-17T18:22:53.995Z,12.46
2023-04-17T18:25:26.577Z,12.47
2023-04-17T18:30:44.178Z,12.43
2023-04-17T18:33:16.701Z,12.39
2023-04-17T18:35:49.846Z,12.38
2023-04-17T18:38:23.311Z,12.37
2023-04-17T18:40:58.279Z,12.35
2023-04-17T18:43:30.890Z,12.30
2023-04-17T18:46:08.090Z,12.27
2023-04-17T18:48:40.861Z,12.23
2023-04-17T18:51:17.629Z,12.19
2023-04-17T18:53:50.634Z,12.16
2023-04-17T18:56:24.315Z,12.13
2023-04-17T18:58:56.926Z,12.10
2023-04-17T19:01:29.726Z,12.08
2023-04-17T19:04:03.488Z,12.04
2023-04-17T19:06:36.537Z,12.01
2023-04-17T19:09:09.270Z,11.96
2023-04-17T19:11:41.775Z,11.94
2023-04-17T19:14:14.582Z,11.91
2023-04-17T19:16:47.529Z,11.87
2023-04-17T19:19:20.476Z,11.84
2023-04-17T19:21:53.091Z,11.82
2023-04-17T19:24:26.143Z,11.77
2023-04-17T19:26:58.706Z,11.76
2023-04-17T19:29:31.325Z,11.74
2023-04-17T19:32:04.020Z,11.71
2023-04-17T19:34:36.835Z,11.69
2023-04-17T19:37:09.369Z,11.68
2023-04-17T19:39:42.199Z,11.63
2023-04-17T19:42:14.863Z,11.59
2023-04-17T19:44:47.416Z,11.59
2023-04-17T19:47:20.036Z,11.55
2023-04-17T19:49:52.792Z,11.54
2023-04-17T19:52:25.953Z,11.50
2023-04-17T19:54:58.460Z,11.50
2023-04-17T19:57:30.883Z,11.47
2023-04-17T20:00:04.151Z,11.42
2023-04-17T20:02:38.833Z,11.39
2023-04-17T20:05:11.757Z,11.39
2023-04-17T20:07:44.343Z,11.37
2023-04-17T20:10:17.167Z,11.34
2023-04-17T20:12:49.840Z,11.32
2023-04-17T20:15:22.537Z,11.32
2023-04-17T20:17:55.664Z,11.29
2023-04-17T20:20:28.221Z,11.28
2023-04-17T20:23:00.848Z,11.26
2023-04-17T20:25:33.798Z,11.25
2023-04-17T20:28:07.943Z,11.23
2023-04-17T20:30:44.717Z,11.23
2023-04-17T20:33:18.128Z,11.22
2023-04-17T20:35:52.643Z,11.22
2023-04-17T20:38:25.934Z,11.19
2023-04-17T20:40:58.571Z,11.18
2023-04-17T20:43:35.702Z,11.16
2023-04-17T20:46:08.255Z,11.16
2023-04-17T20:48:41.366Z,11.16
2023-04-17T20:51:13.752Z,11.12
2023-04-17T20:53:46.518Z,11.11
2023-04-17T20:56:19.898Z,11.08
2023-04-17T20:58:52.409Z,11.07
2023-04-17T21:01:24.923Z,11.04
2023-04-17T21:03:57.485Z,11.02
2023-04-17T21:06:29.997Z,10.98
2023-04-17T21:09:02.652Z,10.95
2023-04-17T21:11:35.899Z,10.92
2023-04-17T21:14:08.648Z,10.89
2023-04-17T21:16:43.326Z,10.86
2023-04-17T21:19:16.239Z,10.84
2023-04-17T21:21:48.841Z,10.80
2023-04-17T21:24:21.889Z,10.78
2023-04-17T21:26:56.216Z,10.74
2023-04-17T21:29:30.164Z,10.70
2023-04-17T21:32:04.056Z,10.67
2023-04-17T21:34:36.734Z,10.65
2023-04-17T21:37:10.113Z,10.63
2023-04-17T21:39:42.594Z,10.60
2023-04-17T21:42:17.127Z,10.58
2023-04-17T21:44:49.714Z,10.55
2023-04-17T21:47:22.300Z,10.51
2023-04-17T21:49:54.890Z,10.49
2023-04-17T21:52:27.682Z,10.45
2023-04-17T21:55:01.833Z,10.43
2023-04-17T21:57:36.328Z,10.42
2023-04-17T22:00:11.852Z,10.40
2023-04-17T22:02:44.914Z,10.36
2023-04-17T22:05:17.894Z,10.33
2023-04-17T22:07:54.967Z,10.30
2023-04-17T22:10:24.681Z,10.28
2023-04-17T22:12:57.013Z,10.25
2023-04-17T22:15:29.418Z,10.23
2023-04-17T22:18:01.983Z,10.22
2023-04-17T22:20:34.848Z,10.17
2023-04-17T22:23:07.969Z,10.15
2023-04-17T22:25:40.888Z,10.14
2023-04-17T22:28:13.476Z,10.12
2023-04-17T22:30:45.975Z,10.08
2023-04-17T22:33:18.821Z,10.07
2023-04-17T22:35:51.643Z,10.03
2023-04-17T22:38:24.453Z,10.01
2023-04-17T22:40:57.301Z,9.99
2023-04-17T22:43:29.899Z,9.99
2023-04-17T22:46:02.442Z,9.97
2023-04-17T22:48:35.358Z,9.96
2023-04-17T22:51:09.871Z,9.95
2023-04-17T22:53:42.738Z,9.95
2023-04-17T22:56:15.292Z,9.93
2023-04-17T22:58:48.081Z,9.92
2023-04-17T23:01:21.083Z,9.91
2023-04-17T23:03:53.741Z,9.90
2023-04-17T23:06:26.423Z,9.87
2023-04-17T23:08:59.203Z,9.86
2023-04-17T23:11:34.019Z,9.81
2023-04-17T23:14:06.689Z,9.79
2023-04-17T23:16:39.892Z,9.76
2023-04-17T23:19:12.490Z,9.75
2023-04-17T23:21:44.988Z,9.74
2023-04-17T23:24:17.414Z,9.72
2023-04-17T23:26:50.055Z,9.70
2023-04-17T23:29:22.482Z,9.70
2023-04-17T23:31:55.114Z,9.68
2023-04-17T23:34:28.313Z,9.68
2023-04-17T23:37:02.714Z,9.66
2023-04-17T23:39:36.003Z,9.63
2023-04-17T23:42:09.092Z,9.60
2023-04-17T23:44:41.669Z,9.58
2023-04-17T23:47:14.821Z,9.57
2023-04-17T23:49:48.132Z,9.55
2023-04-17T23:52:20.908Z,9.54
2023-04-17T23:54:53.514Z,9.54
2023-04-17T23:57:26.149Z,9.56
2023-04-17T23:59:58.570Z,9.55
